createdAt,value
2022-12-31T00:01:45.100Z,97030.41
2022-12-31T00:04:11.662Z,96896.59
2022-12-31T00:06:38.321Z,97047.75
2022-12-31T00:09:07.031Z,97031.63
2022-12-31T00:11:35.185Z,97024.94
2022-12-31T00:14:01.848Z,97029.09
2022-12-31T00:16:32.512Z,97002.38
2022-12-31T00:19:00.788Z,97002.31
2022-12-31T00:21:29.843Z,97002.13
2022-12-31T00:23:56.859Z,96934.84
2022-12-31T00:26:25.703Z,96899.47
2022-12-31T00:28:54.673Z,96942.25
2022-12-31T00:31:23.974Z,96987.16
2022-12-31T00:33:50.668Z,96988.34
2022-12-31T00:36:23.225Z,96775.72
2022-12-31T00:38:52.030Z,96946.78
2022-12-31T00:41:19.868Z,96911.09
2022-12-31T00:43:47.177Z,96936.31
2022-12-31T00:46:14.473Z,96825.66
2022-12-31T00:48:41.746Z,96944.22
2022-12-31T00:51:11.207Z,96942.75
2022-12-31T00:53:38.307Z,96799.50
2022-12-31T00:56:14.279Z,96911.28
2022-12-31T00:58:42.160Z,96933.31
2022-12-31T01:01:15.140Z,96942.06
2022-12-31T01:03:42.448Z,96940.41
2022-12-31T01:06:09.535Z,96914.19
2022-12-31T01:08:36.182Z,96937.09
2022-12-31T01:11:21.855Z,96937.47
2022-12-31T01:13:52.937Z,96933.56
2022-12-31T01:16:25.823Z,96816.53
2022-12-31T01:18:53.374Z,96922.75
2022-12-31T01:21:21.246Z,96850.47
2022-12-31T01:23:48.256Z,96922.75
2022-12-31T01:26:16.153Z,96884.97
2022-12-31T01:28:42.807Z,96917.13
2022-12-31T01:31:15.695Z,96926.59
2022-12-31T01:33:43.404Z,96918.56
2022-12-31T01:36:25.346Z,96900.81
2022-12-31T01:38:54.258Z,96924.88
2022-12-31T01:41:24.240Z,96904.56
2022-12-31T01:43:56.207Z,96861.47
2022-12-31T01:46:44.282Z,96911.78
2022-12-31T01:49:28.101Z,96885.22
2022-12-31T01:52:00.312Z,96908.19
2022-12-31T01:54:29.753Z,96920.25
2022-12-31T01:56:56.977Z,96925.25
2022-12-31T01:59:27.014Z,96901.97
2022-12-31T02:01:54.586Z,96917.47
2022-12-31T02:04:23.974Z,96929.75
2022-12-31T02:06:55.318Z,96844.25
2022-12-31T02:09:21.990Z,96950.28
2022-12-31T02:11:48.839Z,96914.28
2022-12-31T02:14:20.707Z,96894.69
2022-12-31T02:17:22.297Z,96936.19
2022-12-31T02:19:54.857Z,96946.28
2022-12-31T02:22:41.336Z,96958.38
2022-12-31T02:25:47.246Z,96971.53
2022-12-31T02:28:55.253Z,96943.25
2022-12-31T02:31:31.302Z,96968.56
2022-12-31T02:34:18.676Z,96955.47
2022-12-31T02:36:50.094Z,96828.19
2022-12-31T02:39:17.304Z,96745.16
2022-12-31T02:41:51.210Z,96980.97
2022-12-31T02:44:28.289Z,96978.38
2022-12-31T02:47:13.449Z,96990.97
2022-12-31T02:50:22.483Z,96983.03
2022-12-31T02:53:12.947Z,96984.00
2022-12-31T02:55:46.108Z,96981.69
2022-12-31T02:58:56.592Z,96989.53
2022-12-31T03:01:57.996Z,97006.91
2022-12-31T03:04:32.372Z,97033.22
2022-12-31T03:07:07.756Z,96781.75
2022-12-31T03:09:35.892Z,97007.72
2022-12-31T03:12:22.967Z,96898.03
2022-12-31T03:14:49.972Z,96994.44
2022-12-31T03:17:16.902Z,97008.81
2022-12-31T03:20:03.110Z,97010.50
2022-12-31T03:22:30.102Z,96876.13
2022-12-31T03:25:34.215Z,96889.72
2022-12-31T03:28:03.244Z,96905.22
2022-12-31T03:30:30.971Z,97031.78
2022-12-31T03:32:58.283Z,96993.19
2022-12-31T03:35:26.885Z,96984.59
2022-12-31T03:37:53.877Z,96983.38
2022-12-31T03:40:22.247Z,97030.94
2022-12-31T03:42:48.932Z,97022.97
2022-12-31T03:45:15.857Z,97036.72
2022-12-31T03:47:43.216Z,96919.63
2022-12-31T03:50:12.599Z,97035.44
2022-12-31T03:52:39.693Z,97029.66
2022-12-31T03:55:07.580Z,97016.56
2022-12-31T03:57:34.247Z,96977.13
2022-12-31T04:00:00.870Z,96907.38
2022-12-31T04:02:29.195Z,97018.34
2022-12-31T04:04:56.201Z,96968.66
2022-12-31T04:07:23.299Z,97014.84
2022-12-31T04:09:50.128Z,97015.47
2022-12-31T04:12:17.072Z,96994.59
2022-12-31T04:14:43.649Z,97002.72
2022-12-31T04:17:10.236Z,96970.16
2022-12-31T04:19:37.668Z,96987.19
2022-12-31T04:22:04.979Z,97010.22
2022-12-31T04:24:31.567Z,96950.53
2022-12-31T04:27:02.208Z,97011.66
2022-12-31T04:29:34.165Z,97001.56
2022-12-31T04:32:01.816Z,97007.34
2022-12-31T04:34:28.533Z,97025.28
2022-12-31T04:36:55.201Z,97032.06
2022-12-31T04:39:21.923Z,96999.22
2022-12-31T04:41:49.604Z,96944.75
2022-12-31T04:44:17.038Z,97032.03
2022-12-31T04:46:43.829Z,97009.22
2022-12-31T04:49:10.584Z,96771.41
2022-12-31T04:51:37.683Z,97046.56
2022-12-31T04:54:04.504Z,96984.56
2022-12-31T04:56:32.320Z,97066.94
2022-12-31T04:58:59.025Z,97015.97
2022-12-31T05:01:25.628Z,97032.22
2022-12-31T05:03:52.340Z,97052.16
2022-12-31T05:06:21.747Z,96999.09
2022-12-31T05:08:49.250Z,97076.88
2022-12-31T05:11:16.829Z,97084.78
2022-12-31T05:13:44.020Z,97094.97
2022-12-31T05:16:10.764Z,97026.00
2022-12-31T05:18:37.577Z,97097.31
2022-12-31T05:21:04.477Z,97037.56
2022-12-31T05:23:31.094Z,96954.38
2022-12-31T05:25:59.700Z,97072.88
2022-12-31T05:28:26.620Z,97096.03
2022-12-31T05:30:53.365Z,97103.16
2022-12-31T05:33:20.677Z,97044.53
2022-12-31T05:35:47.350Z,97095.91
2022-12-31T05:38:14.069Z,97124.34
2022-12-31T05:40:40.664Z,97090.00
2022-12-31T05:43:07.809Z,97056.66
2022-12-31T05:45:34.425Z,97125.28
2022-12-31T05:48:01.200Z,97138.59
2022-12-31T05:50:27.878Z,97112.47
2022-12-31T05:52:56.224Z,97045.34
2022-12-31T05:55:23.170Z,97093.09
2022-12-31T05:57:49.879Z,97098.69
2022-12-31T06:00:16.950Z,97145.38
2022-12-31T06:02:45.219Z,97104.28
2022-12-31T06:05:12.300Z,97137.88
2022-12-31T06:07:39.055Z,97074.84
2022-12-31T06:10:06.281Z,97133.59
2022-12-31T06:12:32.953Z,97034.66
2022-12-31T06:14:59.671Z,97145.13
2022-12-31T06:17:26.404Z,97118.88
2022-12-31T06:19:53.028Z,96996.25
2022-12-31T06:22:19.618Z,97127.88
2022-12-31T06:24:46.694Z,97139.56
2022-12-31T06:27:13.368Z,97112.44
2022-12-31T06:29:40.036Z,97137.31
2022-12-31T06:32:06.922Z,97148.31
2022-12-31T06:34:33.515Z,97092.25
2022-12-31T06:37:00.129Z,97154.84
2022-12-31T06:39:26.967Z,97158.22
2022-12-31T06:41:54.138Z,97159.69
2022-12-31T06:44:22.432Z,97117.66
2022-12-31T06:46:50.703Z,97144.38
2022-12-31T06:49:17.496Z,97155.19
2022-12-31T06:51:46.186Z,97150.63
2022-12-31T06:54:13.615Z,97021.63
2022-12-31T06:56:41.404Z,97167.44
2022-12-31T06:59:22.856Z,96994.22
2022-12-31T07:02:02.086Z,97056.47
2022-12-31T07:04:48.584Z,97175.19
2022-12-31T07:07:45.533Z,97176.06
2022-12-31T07:10:40.166Z,97176.94
2022-12-31T07:13:33.027Z,97144.31
2022-12-31T07:16:11.050Z,97166.34
2022-12-31T07:19:09.545Z,96994.22
2022-12-31T07:21:39.857Z,97173.38
2022-12-31T07:24:08.765Z,97168.38
2022-12-31T07:27:04.354Z,97156.69
2022-12-31T07:29:45.926Z,97166.31
2022-12-31T07:32:24.731Z,97165.59
2022-12-31T07:35:14.958Z,97091.75
2022-12-31T07:38:07.494Z,97170.19
2022-12-31T07:40:58.242Z,97087.16
2022-12-31T07:43:57.710Z,97083.16
2022-12-31T07:46:30.301Z,97163.69
2022-12-31T07:48:57.216Z,97062.84
2022-12-31T07:51:23.974Z,97170.69
2022-12-31T07:53:50.624Z,97186.34
2022-12-31T07:56:17.398Z,97194.88
2022-12-31T07:59:00.650Z,96954.09
2022-12-31T08:01:48.045Z,97170.72
2022-12-31T08:04:28.044Z,97200.16
2022-12-31T08:06:54.735Z,97204.84
2022-12-31T08:09:44.800Z,97151.50
2022-12-31T08:12:11.556Z,97206.72
2022-12-31T08:14:44.892Z,97065.69
2022-12-31T08:17:13.663Z,97123.19
2022-12-31T08:19:41.068Z,97212.50
2022-12-31T08:22:19.520Z,97210.41
2022-12-31T08:25:05.348Z,97214.94
2022-12-31T08:27:53.967Z,97223.00
2022-12-31T08:30:22.082Z,97231.72
2022-12-31T08:32:58.055Z,97232.84
2022-12-31T08:35:47.496Z,97160.88
2022-12-31T08:38:40.933Z,97171.13
2022-12-31T08:41:37.610Z,97207.47
2022-12-31T08:44:39.441Z,97214.94
2022-12-31T08:47:10.791Z,97223.28
2022-12-31T08:49:37.688Z,97176.59
2022-12-31T08:52:04.565Z,97209.25
2022-12-31T08:54:31.495Z,97252.56
2022-12-31T08:57:27.491Z,97204.38
2022-12-31T09:00:09.599Z,97204.88
2022-12-31T09:03:04.203Z,97081.13
2022-12-31T09:05:53.255Z,97194.25
2022-12-31T09:08:34.230Z,97191.81
2022-12-31T09:11:05.344Z,97106.00
2022-12-31T09:13:44.871Z,97059.66
2022-12-31T09:16:53.335Z,97177.66
2022-12-31T09:19:20.122Z,97183.63
2022-12-31T09:21:47.031Z,97170.53
2022-12-31T09:24:15.326Z,97154.53
2022-12-31T09:26:46.873Z,97101.28
2022-12-31T09:29:36.801Z,97065.94
2022-12-31T09:32:06.188Z,97199.81
2022-12-31T09:34:47.024Z,97197.38
2022-12-31T09:37:24.709Z,97187.50
2022-12-31T09:39:52.242Z,97131.44
2022-12-31T09:42:53.674Z,97190.84
2022-12-31T09:45:38.801Z,97185.81
2022-12-31T09:48:21.236Z,97185.63
2022-12-31T09:51:09.485Z,97176.47
2022-12-31T09:53:44.198Z,97183.41
2022-12-31T09:56:17.328Z,97052.91
2022-12-31T09:59:10.309Z,97185.34
2022-12-31T10:02:04.898Z,97188.84
2022-12-31T10:04:53.135Z,97185.09
2022-12-31T10:07:41.181Z,97052.59
2022-12-31T10:10:23.615Z,97202.06
2022-12-31T10:13:09.369Z,97208.06
2022-12-31T10:15:36.153Z,97207.56
2022-12-31T10:18:50.680Z,97206.47
2022-12-31T10:21:45.222Z,97155.97
2022-12-31T10:24:42.359Z,97196.31
2022-12-31T10:27:28.485Z,97200.50
2022-12-31T10:30:20.483Z,97206.81
2022-12-31T10:33:15.477Z,97201.47
2022-12-31T10:36:19.666Z,97022.34
2022-12-31T10:39:18.979Z,97205.28
2022-12-31T10:42:24.848Z,97207.34
2022-12-31T10:45:11.847Z,97202.91
2022-12-31T10:47:56.649Z,97175.03
2022-12-31T10:50:39.635Z,97178.91
2022-12-31T10:53:37.648Z,97216.00
2022-12-31T10:56:34.765Z,96980.41
2022-12-31T10:59:33.776Z,97095.38
2022-12-31T11:02:38.352Z,97205.47
2022-12-31T11:05:42.541Z,97197.28
2022-12-31T11:08:47.003Z,97205.53
2022-12-31T11:11:58.575Z,97229.66
2022-12-31T11:14:42.601Z,97227.50
2022-12-31T11:17:32.377Z,97230.78
2022-12-31T11:20:10.704Z,97232.69
2022-12-31T11:22:40.290Z,97239.94
2022-12-31T11:25:12.964Z,97231.50
2022-12-31T11:27:59.479Z,97232.03
2022-12-31T11:30:40.985Z,97072.84
2022-12-31T11:33:50.310Z,97252.56
2022-12-31T11:36:25.197Z,97171.69
2022-12-31T11:39:12.943Z,97246.84
2022-12-31T11:42:04.816Z,97195.69
2022-12-31T11:44:55.333Z,97125.13
2022-12-31T11:48:28.437Z,97261.06
2022-12-31T11:50:49.412Z,97257.75
2022-12-31T11:53:57.474Z,97260.13
2022-12-31T11:56:29.861Z,97277.09
2022-12-31T11:58:57.416Z,97161.78
2022-12-31T12:01:52.153Z,97148.56
2022-12-31T12:04:18.887Z,97188.44
2022-12-31T12:06:46.038Z,97298.25
2022-12-31T12:09:17.118Z,97321.88
2022-12-31T12:11:43.775Z,97077.38
2022-12-31T12:14:31.687Z,96405.38
2022-12-31T12:17:04.879Z,97193.44
2022-12-31T12:19:34.305Z,97362.81
2022-12-31T12:22:11.619Z,97465.69
2022-12-31T12:24:38.355Z,97285.94
2022-12-31T12:27:05.110Z,97220.09
2022-12-31T12:29:36.966Z,97296.97
2022-12-31T12:32:16.411Z,97396.75
2022-12-31T12:34:49.428Z,97413.03
2022-12-31T12:37:37.000Z,97402.44
2022-12-31T12:40:33.748Z,97423.19
2022-12-31T12:43:02.029Z,97331.91
2022-12-31T12:45:38.280Z,97418.41
2022-12-31T12:48:16.599Z,97438.78
2022-12-31T12:50:45.790Z,97445.78
2022-12-31T12:53:51.024Z,97447.69
2022-12-31T12:56:30.626Z,97459.75
2022-12-31T12:59:24.750Z,97469.63
2022-12-31T13:02:06.846Z,97480.16
2022-12-31T13:04:51.851Z,97474.34
2022-12-31T13:07:44.646Z,97481.16
2022-12-31T13:10:22.452Z,97342.69
2022-12-31T13:16:05.154Z,97493.50
2022-12-31T13:18:40.784Z,97465.97
2022-12-31T13:21:29.341Z,97507.59
2022-12-31T13:24:11.618Z,97506.75
2022-12-31T13:26:59.960Z,97514.38
2022-12-31T13:29:31.422Z,97423.59
2022-12-31T13:32:02.373Z,97272.63
2022-12-31T13:34:33.771Z,97402.63
2022-12-31T13:37:05.584Z,97485.13
2022-12-31T13:39:39.638Z,97485.28
2022-12-31T13:42:18.343Z,97540.66
2022-12-31T13:44:51.728Z,97499.81
2022-12-31T13:47:32.404Z,97553.41
2022-12-31T13:50:10.951Z,97589.44
2022-12-31T13:52:52.969Z,97590.41
2022-12-31T13:55:25.472Z,97587.19
2022-12-31T13:58:04.982Z,97610.47
2022-12-31T14:00:38.512Z,97616.94
2022-12-31T14:03:19.632Z,97621.94
2022-12-31T14:05:57.761Z,97560.22
2022-12-31T14:08:24.647Z,97505.16
2022-12-31T14:11:11.476Z,97658.63
2022-12-31T14:13:56.880Z,97676.75
2022-12-31T14:16:39.336Z,97667.88
2022-12-31T14:19:23.720Z,97613.38
2022-12-31T14:21:56.827Z,97697.91
2022-12-31T14:24:46.868Z,97705.34
2022-12-31T14:27:26.639Z,97666.69
2022-12-31T14:29:59.262Z,97560.97
2022-12-31T14:32:55.648Z,97717.63
2022-12-31T14:35:56.861Z,97733.97
2022-12-31T14:38:44.207Z,97547.63
2022-12-31T14:41:33.881Z,97751.72
2022-12-31T14:44:12.741Z,97766.28
2022-12-31T14:47:00.589Z,97769.69
2022-12-31T14:49:55.473Z,97779.38
2022-12-31T14:52:23.735Z,97791.00
2022-12-31T14:55:02.153Z,97792.47
2022-12-31T14:58:01.500Z,97803.41
2022-12-31T15:00:27.071Z,97806.00
2022-12-31T15:02:59.911Z,97798.22
2022-12-31T15:05:32.636Z,97808.91
2022-12-31T15:08:26.715Z,97718.22
2022-12-31T15:11:32.083Z,97842.22
2022-12-31T15:14:14.087Z,97825.13
2022-12-31T15:17:06.098Z,97851.56
2022-12-31T15:19:50.639Z,97789.34
2022-12-31T15:22:27.191Z,97881.44
2022-12-31T15:24:54.351Z,97722.50
2022-12-31T15:27:35.739Z,97731.44
2022-12-31T15:30:03.854Z,97869.38
2022-12-31T15:32:46.074Z,97875.53
2022-12-31T15:35:25.684Z,97936.84
2022-12-31T15:38:16.833Z,97796.34
2022-12-31T15:40:51.950Z,97884.72
2022-12-31T15:43:24.896Z,97961.56
2022-12-31T15:45:54.244Z,97965.94
2022-12-31T15:48:48.948Z,97975.78
2022-12-31T15:51:29.909Z,97880.38
2022-12-31T15:53:58.335Z,97982.59
2022-12-31T15:56:48.726Z,97991.84
2022-12-31T15:59:22.490Z,97798.94
2022-12-31T16:01:49.860Z,97832.03
2022-12-31T16:04:32.641Z,97724.81
2022-12-31T16:07:02.638Z,97840.06
2022-12-31T16:09:34.181Z,97908.25
2022-12-31T16:12:02.296Z,97957.53
2022-12-31T16:14:37.138Z,97887.72
2022-12-31T16:17:04.161Z,98015.06
2022-12-31T16:19:36.652Z,97935.59
2022-12-31T16:22:13.581Z,98001.03
2022-12-31T16:25:19.434Z,98033.88
2022-12-31T16:27:30.499Z,97922.25
2022-12-31T16:30:00.872Z,97780.72
2022-12-31T16:32:35.114Z,98025.41
2022-12-31T16:35:01.944Z,97983.31
2022-12-31T16:37:28.653Z,97876.03
2022-12-31T16:39:58.312Z,98116.72
2022-12-31T16:42:27.077Z,97875.56
2022-12-31T16:44:55.554Z,98109.94
2022-12-31T16:47:36.086Z,98105.59
2022-12-31T16:50:14.364Z,97788.69
2022-12-31T16:52:43.597Z,97932.44
2022-12-31T16:55:14.410Z,98116.31
2022-12-31T16:57:42.694Z,98121.72
2022-12-31T17:00:16.592Z,98085.25
2022-12-31T17:02:47.628Z,98058.06
2022-12-31T17:05:25.833Z,97881.53
2022-12-31T17:07:52.977Z,98145.78
2022-12-31T17:10:25.277Z,98032.97
2022-12-31T17:13:26.954Z,98119.78
2022-12-31T17:15:57.399Z,97148.78
2022-12-31T17:18:28.707Z,98145.72
2022-12-31T17:21:04.232Z,98030.84
2022-12-31T17:23:34.207Z,98142.13
2022-12-31T17:26:15.381Z,97978.78
2022-12-31T17:28:49.109Z,97966.53
2022-12-31T17:31:37.757Z,98087.59
2022-12-31T17:34:06.365Z,97954.75
2022-12-31T17:36:33.084Z,97898.34
2022-12-31T17:39:20.970Z,97481.28
2022-12-31T17:41:50.966Z,97880.22
2022-12-31T17:44:21.484Z,98155.38
2022-12-31T17:46:50.288Z,98055.91
2022-12-31T17:49:21.781Z,98000.31
2022-12-31T17:51:48.598Z,97950.50
2022-12-31T17:54:16.665Z,98134.66
2022-12-31T17:56:45.915Z,98165.66
2022-12-31T17:59:17.932Z,98198.72
2022-12-31T18:01:44.763Z,98048.03
2022-12-31T18:04:16.565Z,98196.19
2022-12-31T18:06:43.781Z,98110.56
2022-12-31T18:09:13.053Z,98213.97
2022-12-31T18:11:40.745Z,98179.25
2022-12-31T18:14:07.393Z,98071.00
2022-12-31T18:16:34.233Z,98148.94
2022-12-31T18:19:01.375Z,97946.44
2022-12-31T18:21:34.397Z,98247.47
2022-12-31T18:26:29.523Z,98129.69
2022-12-31T18:28:58.166Z,98246.22
2022-12-31T18:31:27.893Z,98200.13
2022-12-31T18:33:56.876Z,98134.22
2022-12-31T18:36:25.768Z,98217.75
2022-12-31T18:38:52.985Z,98068.97
2022-12-31T18:41:22.485Z,98220.66
2022-12-31T18:43:49.708Z,98221.94
2022-12-31T18:46:23.344Z,98172.13
2022-12-31T18:48:51.280Z,98040.09
2022-12-31T18:51:25.132Z,98218.75
2022-12-31T18:53:56.358Z,98189.00
2022-12-31T18:56:25.066Z,98324.44
2022-12-31T18:58:52.211Z,98288.47
2022-12-31T19:01:27.135Z,98337.53
2022-12-31T19:04:02.135Z,98150.47
2022-12-31T19:06:29.494Z,98340.31
2022-12-31T19:08:56.363Z,98258.44
2022-12-31T19:11:23.637Z,98343.13
2022-12-31T19:13:50.627Z,98288.81
2022-12-31T19:16:17.992Z,98329.53
2022-12-31T19:18:46.159Z,98181.25
2022-12-31T19:21:18.456Z,98370.97
2022-12-31T19:23:45.851Z,98379.38
2022-12-31T19:26:16.344Z,98250.63
2022-12-31T19:28:44.136Z,98258.47
2022-12-31T19:31:11.275Z,98288.91
2022-12-31T19:33:38.474Z,98397.75
2022-12-31T19:36:07.375Z,98357.66
2022-12-31T19:38:34.356Z,98392.13
2022-12-31T19:41:01.852Z,98389.06
2022-12-31T19:43:28.489Z,98387.06
2022-12-31T19:45:55.387Z,98329.66
2022-12-31T19:48:32.058Z,98434.28
2022-12-31T19:50:59.863Z,98287.94
2022-12-31T19:53:28.038Z,98218.69
2022-12-31T19:55:54.777Z,98052.16
2022-12-31T19:58:25.528Z,98277.03
2022-12-31T20:00:57.050Z,98274.09
2022-12-31T20:03:28.028Z,98356.63
2022-12-31T20:06:07.482Z,98371.94
2022-12-31T20:08:35.029Z,98434.75
2022-12-31T20:11:17.314Z,98307.69
2022-12-31T20:13:44.802Z,98403.09
2022-12-31T20:16:14.587Z,98432.41
2022-12-31T20:18:43.016Z,98367.25
2022-12-31T20:21:17.907Z,98451.91
2022-12-31T20:23:45.459Z,98460.09
2022-12-31T20:26:12.430Z,98411.56
2022-12-31T20:28:39.184Z,98244.28
2022-12-31T20:31:17.551Z,98378.66
2022-12-31T20:33:44.797Z,98400.88
2022-12-31T20:36:13.866Z,98476.69
2022-12-31T20:38:40.853Z,98451.28
2022-12-31T20:41:13.124Z,98438.94
2022-12-31T20:43:40.165Z,98478.38
2022-12-31T20:46:14.524Z,98390.16
2022-12-31T20:48:43.842Z,98438.66
2022-12-31T20:51:10.680Z,98478.03
2022-12-31T20:53:37.338Z,98485.72
2022-12-31T20:56:05.501Z,98348.06
2022-12-31T20:58:32.534Z,98493.19
2022-12-31T21:00:59.471Z,98504.06
2022-12-31T21:04:03.244Z,98505.34
2022-12-31T21:06:14.179Z,98240.09
2022-12-31T21:08:41.277Z,98262.66
2022-12-31T21:11:28.750Z,98396.00
2022-12-31T21:13:57.099Z,98384.34
2022-12-31T21:16:24.972Z,98513.91
2022-12-31T21:18:51.787Z,98262.56
2022-12-31T21:21:18.884Z,98403.81
2022-12-31T21:23:45.578Z,98475.22
2022-12-31T21:26:12.324Z,98408.22
2022-12-31T21:28:39.121Z,98393.88
2022-12-31T21:31:07.991Z,98369.50
2022-12-31T21:33:35.216Z,98385.34
2022-12-31T21:36:04.685Z,98518.22
2022-12-31T21:38:32.082Z,98533.09
2022-12-31T21:41:07.236Z,98417.75
2022-12-31T21:43:34.044Z,98387.66
2022-12-31T21:46:06.094Z,98401.56
2022-12-31T21:48:33.625Z,98587.97
2022-12-31T21:51:09.918Z,98534.41
2022-12-31T21:53:37.504Z,98548.13
2022-12-31T21:56:16.105Z,98418.59
2022-12-31T21:58:45.810Z,98587.41
2022-12-31T22:01:39.680Z,98469.88
2022-12-31T22:04:12.929Z,98490.16
2022-12-31T22:06:48.945Z,98596.44
2022-12-31T22:09:15.656Z,98586.69
2022-12-31T22:11:42.444Z,98531.16
2022-12-31T22:14:09.627Z,98536.59
2022-12-31T22:16:36.771Z,98590.72
2022-12-31T22:19:03.541Z,98514.16
2022-12-31T22:21:30.310Z,98609.22
2022-12-31T22:23:58.891Z,98517.72
2022-12-31T22:26:28.991Z,98544.97
2022-12-31T22:28:59.814Z,98628.50
2022-12-31T22:31:30.206Z,98457.72
2022-12-31T22:33:58.201Z,98629.28
2022-12-31T22:36:25.031Z,98672.78
2022-12-31T22:38:57.227Z,98635.09
2022-12-31T22:41:25.669Z,98633.25
2022-12-31T22:44:02.628Z,98629.28
2022-12-31T22:46:30.812Z,98631.09
2022-12-31T22:48:59.203Z,98589.59
2022-12-31T22:51:30.507Z,98299.38
2022-12-31T22:54:13.570Z,98397.19
2022-12-31T22:56:40.455Z,98554.84
2022-12-31T22:59:07.165Z,98604.59
2022-12-31T23:01:34.563Z,98543.66
2022-12-31T23:04:01.372Z,98570.00
2022-12-31T23:06:29.030Z,98649.06
2022-12-31T23:09:14.517Z,98619.31
2022-12-31T23:11:41.233Z,98575.75
2022-12-31T23:14:26.749Z,98635.66
2022-12-31T23:17:29.486Z,98520.59
2022-12-31T23:20:18.279Z,98558.94
2022-12-31T23:23:04.569Z,98647.72
2022-12-31T23:25:32.951Z,98587.84
2022-12-31T23:27:59.574Z,98431.66
2022-12-31T23:30:26.233Z,98493.28
2022-12-31T23:32:52.918Z,98644.66
2022-12-31T23:35:19.821Z,98503.72
2022-12-31T23:37:46.471Z,98568.75
2022-12-31T23:40:20.677Z,98642.19
2022-12-31T23:42:48.729Z,98408.22
2022-12-31T23:45:15.595Z,98652.66
2022-12-31T23:47:42.233Z,98663.13
2022-12-31T23:50:08.976Z,98509.53
2022-12-31T23:52:35.660Z,98678.00
2022-12-31T23:55:03.628Z,98639.66
2022-12-31T23:57:30.617Z,98686.31
2022-12-31T23:59:57.299Z,98681.63
